sensor_id;sensor_type;location;lat;lon;timestamp;temperature;humidity
28863;DHT22;15994;51.796;13.006;2023-06-24T00:02:13;17.70;99.90
28863;DHT22;15994;51.796;13.006;2023-06-24T00:04:39;17.60;99.90
28863;DHT22;15994;51.796;13.006;2023-06-24T00:07:06;17.80;99.90
28863;DHT22;15994;51.796;13.006;2023-06-24T00:09:32;17.60;99.90
28863;DHT22;15994;51.796;13.006;2023-06-24T00:11:59;17.70;99.90
28863;DHT22;15994;51.796;13.006;2023-06-24T00:14:25;17.70;99.90
28863;DHT22;15994;51.796;13.006;2023-06-24T00:16:53;17.70;99.90
28863;DHT22;15994;51.796;13.006;2023-06-24T00:19:20;17.70;99.90
28863;DHT22;15994;51.796;13.006;2023-06-24T00:21:48;17.70;99.90
28863;DHT22;15994;51.796;13.006;2023-06-24T00:24:16;17.60;99.90
28863;DHT22;15994;51.796;13.006;2023-06-24T00:26:47;17.70;99.90
28863;DHT22;15994;51.796;13.006;2023-06-24T00:29:14;17.70;99.90
28863;DHT22;15994;51.796;13.006;2023-06-24T00:31:41;17.60;99.90
28863;DHT22;15994;51.796;13.006;2023-06-24T00:34:07;17.80;99.90
28863;DHT22;15994;51.796;13.006;2023-06-24T00:36:34;17.60;99.90
28863;DHT22;15994;51.796;13.006;2023-06-24T00:39:01;17.70;99.90
28863;DHT22;15994;51.796;13.006;2023-06-24T00:41:32;17.70;99.90
28863;DHT22;15994;51.796;13.006;2023-06-24T00:43:59;17.70;99.90
28863;DHT22;15994;51.796;13.006;2023-06-24T00:46:26;17.70;99.90
28863;DHT22;15994;51.796;13.006;2023-06-24T00:48:54;17.70;99.90
28863;DHT22;15994;51.796;13.006;2023-06-24T00:51:21;17.60;99.90
28863;DHT22;15994;51.796;13.006;2023-06-24T00:53:54;17.60;99.90
28863;DHT22;15994;51.796;13.006;2023-06-24T00:56:31;17.50;99.90
28863;DHT22;15994;51.796;13.006;2023-06-24T00:58:57;17.50;99.90
28863;DHT22;15994;51.796;13.006;2023-06-24T01:01:25;17.40;99.90
28863;DHT22;15994;51.796;13.006;2023-06-24T01:03:52;17.50;99.90
28863;DHT22;15994;51.796;13.006;2023-06-24T01:06:18;17.40;99.90
28863;DHT22;15994;51.796;13.006;2023-06-24T01:08:45;17.40;99.90
28863;DHT22;15994;51.796;13.006;2023-06-24T01:11:16;17.30;99.90
28863;DHT22;15994;51.796;13.006;2023-06-24T01:13:42;17.40;99.90
28863;DHT22;15994;51.796;13.006;2023-06-24T01:16:10;17.40;99.90
28863;DHT22;15994;51.796;13.006;2023-06-24T01:18:43;17.30;99.90
28863;DHT22;15994;51.796;13.006;2023-06-24T01:21:17;17.30;99.90
28863;DHT22;15994;51.796;13.006;2023-06-24T01:23:51;17.40;99.90
28863;DHT22;15994;51.796;13.006;2023-06-24T01:26:29;17.30;99.90
28863;DHT22;15994;51.796;13.006;2023-06-24T01:34:06;17.20;99.90
28863;DHT22;15994;51.796;13.006;2023-06-24T01:36:37;17.20;99.90
28863;DHT22;15994;51.796;13.006;2023-06-24T01:39:05;17.20;99.90
28863;DHT22;15994;51.796;13.006;2023-06-24T01:41:40;17.20;99.90
28863;DHT22;15994;51.796;13.006;2023-06-24T01:44:11;17.30;99.90
28863;DHT22;15994;51.796;13.006;2023-06-24T01:46:39;17.20;99.90
28863;DHT22;15994;51.796;13.006;2023-06-24T01:49:07;17.30;99.90
28863;DHT22;15994;51.796;13.006;2023-06-24T01:51:34;17.20;99.90
28863;DHT22;15994;51.796;13.006;2023-06-24T01:54:02;17.10;99.90
28863;DHT22;15994;51.796;13.006;2023-06-24T01:56:29;17.20;99.90
28863;DHT22;15994;51.796;13.006;2023-06-24T01:58:57;17.10;99.90
28863;DHT22;15994;51.796;13.006;2023-06-24T02:01:24;17.10;99.90
28863;DHT22;15994;51.796;13.006;2023-06-24T02:03:51;17.00;99.90
28863;DHT22;15994;51.796;13.006;2023-06-24T02:06:18;17.10;99.90
28863;DHT22;15994;51.796;13.006;2023-06-24T02:08:45;17.00;99.90
28863;DHT22;15994;51.796;13.006;2023-06-24T02:11:14;17.00;99.90
28863;DHT22;15994;51.796;13.006;2023-06-24T02:13:41;17.00;99.90
28863;DHT22;15994;51.796;13.006;2023-06-24T02:16:08;17.20;99.90
28863;DHT22;15994;51.796;13.006;2023-06-24T02:18:37;17.00;99.90
28863;DHT22;15994;51.796;13.006;2023-06-24T02:21:07;17.00;99.90
28863;DHT22;15994;51.796;13.006;2023-06-24T02:23:35;17.10;99.90
28863;DHT22;15994;51.796;13.006;2023-06-24T02:26:02;17.20;99.90
28863;DHT22;15994;51.796;13.006;2023-06-24T02:28:29;17.10;99.90
28863;DHT22;15994;51.796;13.006;2023-06-24T02:30:56;17.10;99.90
28863;DHT22;15994;51.796;13.006;2023-06-24T02:33:23;17.10;99.90
28863;DHT22;15994;51.796;13.006;2023-06-24T02:35:49;17.10;99.90
28863;DHT22;15994;51.796;13.006;2023-06-24T02:38:16;17.10;99.90
28863;DHT22;15994;51.796;13.006;2023-06-24T02:40:45;17.10;99.90
28863;DHT22;15994;51.796;13.006;2023-06-24T02:43:12;17.20;99.90
28863;DHT22;15994;51.796;13.006;2023-06-24T02:45:38;17.20;99.90
28863;DHT22;15994;51.796;13.006;2023-06-24T02:48:05;17.20;99.90
28863;DHT22;15994;51.796;13.006;2023-06-24T02:50:32;17.10;99.90
28863;DHT22;15994;51.796;13.006;2023-06-24T02:52:59;17.10;99.90
28863;DHT22;15994;51.796;13.006;2023-06-24T02:55:26;17.10;99.90
28863;DHT22;15994;51.796;13.006;2023-06-24T02:57:52;17.10;99.90
28863;DHT22;15994;51.796;13.006;2023-06-24T03:00:19;17.00;99.90
28863;DHT22;15994;51.796;13.006;2023-06-24T03:02:46;17.00;99.90
28863;DHT22;15994;51.796;13.006;2023-06-24T03:05:13;16.90;99.90
28863;DHT22;15994;51.796;13.006;2023-06-24T03:07:40;16.90;99.90
28863;DHT22;15994;51.796;13.006;2023-06-24T03:10:07;16.90;99.90
28863;DHT22;15994;51.796;13.006;2023-06-24T03:12:35;16.80;99.90
28863;DHT22;15994;51.796;13.006;2023-06-24T03:15:02;16.80;99.90
28863;DHT22;15994;51.796;13.006;2023-06-24T03:17:29;16.70;99.90
28863;DHT22;15994;51.796;13.006;2023-06-24T03:19:56;16.70;99.90
28863;DHT22;15994;51.796;13.006;2023-06-24T03:24:49;16.60;99.90
28863;DHT22;15994;51.796;13.006;2023-06-24T03:27:16;16.60;99.90
28863;DHT22;15994;51.796;13.006;2023-06-24T03:29:43;16.60;99.90
28863;DHT22;15994;51.796;13.006;2023-06-24T03:32:09;16.70;99.90
28863;DHT22;15994;51.796;13.006;2023-06-24T03:34:36;16.60;99.90
28863;DHT22;15994;51.796;13.006;2023-06-24T03:37:02;16.60;99.90
28863;DHT22;15994;51.796;13.006;2023-06-24T03:39:29;16.60;99.90
28863;DHT22;15994;51.796;13.006;2023-06-24T03:41:56;16.70;99.90
28863;DHT22;15994;51.796;13.006;2023-06-24T03:44:22;16.60;99.90
28863;DHT22;15994;51.796;13.006;2023-06-24T03:46:49;16.60;99.90
28863;DHT22;15994;51.796;13.006;2023-06-24T03:49:15;16.70;99.90
28863;DHT22;15994;51.796;13.006;2023-06-24T03:51:42;16.70;99.90
28863;DHT22;15994;51.796;13.006;2023-06-24T03:54:09;16.60;99.90
28863;DHT22;15994;51.796;13.006;2023-06-24T03:59:02;16.50;99.90
28863;DHT22;15994;51.796;13.006;2023-06-24T04:01:29;16.50;99.90
28863;DHT22;15994;51.796;13.006;2023-06-24T04:03:57;16.60;99.90
28863;DHT22;15994;51.796;13.006;2023-06-24T04:06:23;16.50;99.90
28863;DHT22;15994;51.796;13.006;2023-06-24T04:08:50;16.60;99.90
28863;DHT22;15994;51.796;13.006;2023-06-24T04:11:17;16.50;99.90
28863;DHT22;15994;51.796;13.006;2023-06-24T04:13:44;16.50;99.90
28863;DHT22;15994;51.796;13.006;2023-06-24T04:16:13;16.40;99.90
28863;DHT22;15994;51.796;13.006;2023-06-24T04:18:40;16.50;99.90
28863;DHT22;15994;51.796;13.006;2023-06-24T04:21:07;16.50;99.90
28863;DHT22;15994;51.796;13.006;2023-06-24T04:23:33;16.50;99.90
28863;DHT22;15994;51.796;13.006;2023-06-24T04:26:00;16.50;99.90
28863;DHT22;15994;51.796;13.006;2023-06-24T04:28:26;16.50;99.90
28863;DHT22;15994;51.796;13.006;2023-06-24T04:30:53;16.50;99.90
28863;DHT22;15994;51.796;13.006;2023-06-24T04:33:20;16.50;99.90
28863;DHT22;15994;51.796;13.006;2023-06-24T04:35:48;16.60;99.90
28863;DHT22;15994;51.796;13.006;2023-06-24T04:38:16;16.60;99.90
28863;DHT22;15994;51.796;13.006;2023-06-24T04:40:44;16.70;99.90
28863;DHT22;15994;51.796;13.006;2023-06-24T04:43:10;16.70;99.90
28863;DHT22;15994;51.796;13.006;2023-06-24T04:45:36;16.70;99.90
28863;DHT22;15994;51.796;13.006;2023-06-24T04:48:03;16.70;99.90
28863;DHT22;15994;51.796;13.006;2023-06-24T04:50:29;16.60;99.90
28863;DHT22;15994;51.796;13.006;2023-06-24T04:52:56;16.60;99.90
28863;DHT22;15994;51.796;13.006;2023-06-24T04:55:22;16.60;99.90
28863;DHT22;15994;51.796;13.006;2023-06-24T04:57:49;16.50;99.90
28863;DHT22;15994;51.796;13.006;2023-06-24T05:00:15;16.30;99.90
28863;DHT22;15994;51.796;13.006;2023-06-24T05:02:42;16.40;99.90
28863;DHT22;15994;51.796;13.006;2023-06-24T05:05:08;16.50;99.90
28863;DHT22;15994;51.796;13.006;2023-06-24T05:07:35;16.30;99.90
28863;DHT22;15994;51.796;13.006;2023-06-24T05:10:01;16.40;99.90
28863;DHT22;15994;51.796;13.006;2023-06-24T05:12:28;16.40;99.90
28863;DHT22;15994;51.796;13.006;2023-06-24T05:14:54;16.30;99.90
28863;DHT22;15994;51.796;13.006;2023-06-24T05:17:21;16.40;99.90
28863;DHT22;15994;51.796;13.006;2023-06-24T05:19:47;16.50;99.90
28863;DHT22;15994;51.796;13.006;2023-06-24T05:22:14;16.40;99.90
28863;DHT22;15994;51.796;13.006;2023-06-24T05:24:40;16.50;99.90
28863;DHT22;15994;51.796;13.006;2023-06-24T05:27:07;16.60;99.90
28863;DHT22;15994;51.796;13.006;2023-06-24T05:29:33;16.60;99.90
28863;DHT22;15994;51.796;13.006;2023-06-24T05:32:00;16.70;99.90
28863;DHT22;15994;51.796;13.006;2023-06-24T05:34:29;16.50;99.90
28863;DHT22;15994;51.796;13.006;2023-06-24T05:36:55;16.50;99.90
28863;DHT22;15994;51.796;13.006;2023-06-24T05:39:22;16.70;99.90
28863;DHT22;15994;51.796;13.006;2023-06-24T05:41:48;16.40;99.90
28863;DHT22;15994;51.796;13.006;2023-06-24T05:44:15;16.60;99.90
28863;DHT22;15994;51.796;13.006;2023-06-24T05:46:43;16.60;99.90
28863;DHT22;15994;51.796;13.006;2023-06-24T05:49:10;16.60;99.90
28863;DHT22;15994;51.796;13.006;2023-06-24T05:51:37;16.70;99.90
28863;DHT22;15994;51.796;13.006;2023-06-24T05:54:03;16.70;99.90
28863;DHT22;15994;51.796;13.006;2023-06-24T05:56:29;16.70;99.90
28863;DHT22;15994;51.796;13.006;2023-06-24T05:58:56;16.70;99.90
28863;DHT22;15994;51.796;13.006;2023-06-24T06:01:22;16.60;99.90
28863;DHT22;15994;51.796;13.006;2023-06-24T06:03:49;16.70;99.90
28863;DHT22;15994;51.796;13.006;2023-06-24T06:06:16;16.60;99.90
28863;DHT22;15994;51.796;13.006;2023-06-24T06:08:42;16.90;99.90
28863;DHT22;15994;51.796;13.006;2023-06-24T06:11:08;17.00;99.90
28863;DHT22;15994;51.796;13.006;2023-06-24T06:13:35;17.00;99.90
28863;DHT22;15994;51.796;13.006;2023-06-24T06:16:01;16.80;99.90
28863;DHT22;15994;51.796;13.006;2023-06-24T06:18:28;16.90;99.90
28863;DHT22;15994;51.796;13.006;2023-06-24T06:20:54;16.80;99.90
28863;DHT22;15994;51.796;13.006;2023-06-24T06:23:21;16.60;99.90
28863;DHT22;15994;51.796;13.006;2023-06-24T06:25:47;16.70;99.90
28863;DHT22;15994;51.796;13.006;2023-06-24T06:28:14;16.80;99.90
28863;DHT22;15994;51.796;13.006;2023-06-24T06:30:40;16.60;99.90
28863;DHT22;15994;51.796;13.006;2023-06-24T06:33:07;16.60;99.90
28863;DHT22;15994;51.796;13.006;2023-06-24T06:35:33;16.50;99.90
28863;DHT22;15994;51.796;13.006;2023-06-24T06:37:59;16.70;99.90
28863;DHT22;15994;51.796;13.006;2023-06-24T06:40:26;16.90;99.90
28863;DHT22;15994;51.796;13.006;2023-06-24T06:42:53;16.80;99.90
28863;DHT22;15994;51.796;13.006;2023-06-24T06:45:20;17.00;99.90
28863;DHT22;15994;51.796;13.006;2023-06-24T06:47:46;16.80;99.90
28863;DHT22;15994;51.796;13.006;2023-06-24T06:50:13;16.80;99.90
28863;DHT22;15994;51.796;13.006;2023-06-24T06:52:39;16.60;99.90
28863;DHT22;15994;51.796;13.006;2023-06-24T06:55:06;17.00;99.90
28863;DHT22;15994;51.796;13.006;2023-06-24T06:57:32;16.90;99.90
28863;DHT22;15994;51.796;13.006;2023-06-24T06:59:58;16.70;99.90
28863;DHT22;15994;51.796;13.006;2023-06-24T07:02:25;16.80;99.90
28863;DHT22;15994;51.796;13.006;2023-06-24T07:04:51;16.90;99.90
28863;DHT22;15994;51.796;13.006;2023-06-24T07:07:18;16.90;99.90
28863;DHT22;15994;51.796;13.006;2023-06-24T07:09:44;17.30;99.90
28863;DHT22;15994;51.796;13.006;2023-06-24T07:12:11;17.20;99.90
28863;DHT22;15994;51.796;13.006;2023-06-24T07:14:38;17.40;99.90
28863;DHT22;15994;51.796;13.006;2023-06-24T07:17:05;16.90;99.90
28863;DHT22;15994;51.796;13.006;2023-06-24T07:19:31;16.70;99.90
28863;DHT22;15994;51.796;13.006;2023-06-24T07:21:58;17.00;99.90
28863;DHT22;15994;51.796;13.006;2023-06-24T07:24:24;17.10;99.90
28863;DHT22;15994;51.796;13.006;2023-06-24T07:26:51;17.30;99.90
28863;DHT22;15994;51.796;13.006;2023-06-24T07:29:17;17.70;99.90
28863;DHT22;15994;51.796;13.006;2023-06-24T07:31:44;17.90;99.90
28863;DHT22;15994;51.796;13.006;2023-06-24T07:34:10;18.20;99.90
28863;DHT22;15994;51.796;13.006;2023-06-24T07:36:36;18.20;99.90
28863;DHT22;15994;51.796;13.006;2023-06-24T07:39:03;18.50;99.90
28863;DHT22;15994;51.796;13.006;2023-06-24T07:41:30;18.50;99.90
28863;DHT22;15994;51.796;13.006;2023-06-24T07:43:56;18.00;99.90
28863;DHT22;15994;51.796;13.006;2023-06-24T07:46:23;18.10;99.90
28863;DHT22;15994;51.796;13.006;2023-06-24T07:48:52;17.90;99.90
28863;DHT22;15994;51.796;13.006;2023-06-24T07:51:18;17.90;99.90
28863;DHT22;15994;51.796;13.006;2023-06-24T07:53:45;18.20;99.90
28863;DHT22;15994;51.796;13.006;2023-06-24T07:56:11;18.50;99.90
28863;DHT22;15994;51.796;13.006;2023-06-24T07:58:38;18.60;99.90
28863;DHT22;15994;51.796;13.006;2023-06-24T08:01:04;18.40;99.90
28863;DHT22;15994;51.796;13.006;2023-06-24T08:03:31;18.00;99.90
28863;DHT22;15994;51.796;13.006;2023-06-24T08:05:57;18.20;99.90
28863;DHT22;15994;51.796;13.006;2023-06-24T08:08:24;18.10;99.90
28863;DHT22;15994;51.796;13.006;2023-06-24T08:10:50;18.00;99.90
28863;DHT22;15994;51.796;13.006;2023-06-24T08:13:17;18.20;99.90
28863;DHT22;15994;51.796;13.006;2023-06-24T08:15:43;18.20;99.90
28863;DHT22;15994;51.796;13.006;2023-06-24T08:18:10;18.50;99.90
28863;DHT22;15994;51.796;13.006;2023-06-24T08:20:36;19.00;99.90
28863;DHT22;15994;51.796;13.006;2023-06-24T08:23:03;18.80;99.90
28863;DHT22;15994;51.796;13.006;2023-06-24T08:25:29;18.70;99.90
28863;DHT22;15994;51.796;13.006;2023-06-24T08:27:56;18.40;99.90
28863;DHT22;15994;51.796;13.006;2023-06-24T08:30:23;18.40;99.90
28863;DHT22;15994;51.796;13.006;2023-06-24T08:32:49;18.50;99.90
28863;DHT22;15994;51.796;13.006;2023-06-24T08:35:16;18.70;99.90
28863;DHT22;15994;51.796;13.006;2023-06-24T08:37:42;18.60;99.90
28863;DHT22;15994;51.796;13.006;2023-06-24T08:40:09;18.70;99.90
28863;DHT22;15994;51.796;13.006;2023-06-24T08:42:35;18.70;99.90
28863;DHT22;15994;51.796;13.006;2023-06-24T08:45:02;18.40;99.90
28863;DHT22;15994;51.796;13.006;2023-06-24T08:47:28;18.20;99.90
28863;DHT22;15994;51.796;13.006;2023-06-24T08:50:01;18.10;99.90
28863;DHT22;15994;51.796;13.006;2023-06-24T08:52:30;18.30;99.90
28863;DHT22;15994;51.796;13.006;2023-06-24T08:54:57;18.20;99.90
28863;DHT22;15994;51.796;13.006;2023-06-24T08:57:24;18.60;99.90
28863;DHT22;15994;51.796;13.006;2023-06-24T08:59:50;18.50;99.90
28863;DHT22;15994;51.796;13.006;2023-06-24T09:02:17;18.60;99.90
28863;DHT22;15994;51.796;13.006;2023-06-24T09:04:43;19.00;99.90
28863;DHT22;15994;51.796;13.006;2023-06-24T09:07:10;19.50;99.90
28863;DHT22;15994;51.796;13.006;2023-06-24T09:09:43;19.50;99.90
28863;DHT22;15994;51.796;13.006;2023-06-24T09:12:11;19.00;99.90
28863;DHT22;15994;51.796;13.006;2023-06-24T09:14:38;18.70;99.90
28863;DHT22;15994;51.796;13.006;2023-06-24T09:17:06;18.90;99.90
28863;DHT22;15994;51.796;13.006;2023-06-24T09:19:34;19.30;99.90
28863;DHT22;15994;51.796;13.006;2023-06-24T09:24:29;18.90;99.90
28863;DHT22;15994;51.796;13.006;2023-06-24T09:26:56;19.40;99.90
28863;DHT22;15994;51.796;13.006;2023-06-24T09:29:26;19.60;99.90
28863;DHT22;15994;51.796;13.006;2023-06-24T09:31:53;19.40;99.90
28863;DHT22;15994;51.796;13.006;2023-06-24T09:34:21;19.50;99.90
28863;DHT22;15994;51.796;13.006;2023-06-24T09:36:55;19.60;99.90
28863;DHT22;15994;51.796;13.006;2023-06-24T09:39:22;19.70;99.90
28863;DHT22;15994;51.796;13.006;2023-06-24T09:41:53;19.70;99.90
28863;DHT22;15994;51.796;13.006;2023-06-24T09:44:20;19.70;99.90
28863;DHT22;15994;51.796;13.006;2023-06-24T09:46:47;19.80;99.90
28863;DHT22;15994;51.796;13.006;2023-06-24T09:49:14;20.10;99.90
28863;DHT22;15994;51.796;13.006;2023-06-24T09:51:47;20.00;99.90
28863;DHT22;15994;51.796;13.006;2023-06-24T09:54:14;19.80;99.90
28863;DHT22;15994;51.796;13.006;2023-06-24T09:56:45;19.70;99.90
28863;DHT22;15994;51.796;13.006;2023-06-24T09:59:12;19.90;99.90
28863;DHT22;15994;51.796;13.006;2023-06-24T10:01:39;20.10;99.90
28863;DHT22;15994;51.796;13.006;2023-06-24T10:04:06;19.90;99.90
28863;DHT22;15994;51.796;13.006;2023-06-24T10:06:33;19.60;99.90
28863;DHT22;15994;51.796;13.006;2023-06-24T10:09:02;19.80;99.90
28863;DHT22;15994;51.796;13.006;2023-06-24T10:11:29;20.10;99.90
28863;DHT22;15994;51.796;13.006;2023-06-24T10:13:56;20.00;99.90
28863;DHT22;15994;51.796;13.006;2023-06-24T10:16:22;19.80;99.90
28863;DHT22;15994;51.796;13.006;2023-06-24T10:18:49;19.80;99.90
28863;DHT22;15994;51.796;13.006;2023-06-24T10:21:15;19.80;99.90
28863;DHT22;15994;51.796;13.006;2023-06-24T10:26:25;19.70;99.90
28863;DHT22;15994;51.796;13.006;2023-06-24T10:34:19;20.30;99.90
28863;DHT22;15994;51.796;13.006;2023-06-24T10:37:05;20.30;99.90
28863;DHT22;15994;51.796;13.006;2023-06-24T10:42:28;20.40;99.90
28863;DHT22;15994;51.796;13.006;2023-06-24T10:44:55;20.50;99.90
28863;DHT22;15994;51.796;13.006;2023-06-24T10:47:22;20.70;99.90
28863;DHT22;15994;51.796;13.006;2023-06-24T10:49:49;20.90;99.90
28863;DHT22;15994;51.796;13.006;2023-06-24T10:52:17;20.70;99.90
28863;DHT22;15994;51.796;13.006;2023-06-24T10:54:44;20.90;99.90
28863;DHT22;15994;51.796;13.006;2023-06-24T10:57:11;21.10;99.90
28863;DHT22;15994;51.796;13.006;2023-06-24T10:59:41;21.10;99.90
28863;DHT22;15994;51.796;13.006;2023-06-24T11:02:08;21.30;99.90
28863;DHT22;15994;51.796;13.006;2023-06-24T11:04:54;21.50;99.90
28863;DHT22;15994;51.796;13.006;2023-06-24T11:07:21;21.50;99.90
28863;DHT22;15994;51.796;13.006;2023-06-24T11:09:49;21.30;99.90
28863;DHT22;15994;51.796;13.006;2023-06-24T11:12:16;21.60;99.90
28863;DHT22;15994;51.796;13.006;2023-06-24T11:14:42;21.60;99.90
28863;DHT22;15994;51.796;13.006;2023-06-24T11:17:09;21.60;99.90
28863;DHT22;15994;51.796;13.006;2023-06-24T11:19:35;21.80;99.90
28863;DHT22;15994;51.796;13.006;2023-06-24T11:22:05;21.60;99.90
28863;DHT22;15994;51.796;13.006;2023-06-24T11:24:32;21.60;99.90
28863;DHT22;15994;51.796;13.006;2023-06-24T11:26:58;21.60;99.90
28863;DHT22;15994;51.796;13.006;2023-06-24T11:29:28;21.50;99.90
28863;DHT22;15994;51.796;13.006;2023-06-24T11:31:55;21.70;99.90
28863;DHT22;15994;51.796;13.006;2023-06-24T11:34:21;22.00;99.90
28863;DHT22;15994;51.796;13.006;2023-06-24T11:36:48;22.00;99.90
28863;DHT22;15994;51.796;13.006;2023-06-24T11:39:21;21.90;99.90
28863;DHT22;15994;51.796;13.006;2023-06-24T11:41:48;22.00;99.90
28863;DHT22;15994;51.796;13.006;2023-06-24T11:44:16;22.10;99.90
28863;DHT22;15994;51.796;13.006;2023-06-24T11:46:43;22.10;99.90
28863;DHT22;15994;51.796;13.006;2023-06-24T11:49:09;22.00;99.90
28863;DHT22;15994;51.796;13.006;2023-06-24T11:51:36;22.20;99.90
28863;DHT22;15994;51.796;13.006;2023-06-24T11:54:03;22.20;99.90
28863;DHT22;15994;51.796;13.006;2023-06-24T11:56:36;22.40;99.90
28863;DHT22;15994;51.796;13.006;2023-06-24T11:59:22;22.30;99.90
28863;DHT22;15994;51.796;13.006;2023-06-24T12:01:53;22.30;99.90
28863;DHT22;15994;51.796;13.006;2023-06-24T12:04:20;22.50;99.90
28863;DHT22;15994;51.796;13.006;2023-06-24T12:06:47;22.60;99.90
28863;DHT22;15994;51.796;13.006;2023-06-24T12:09:13;22.70;99.90
28863;DHT22;15994;51.796;13.006;2023-06-24T12:11:41;22.80;99.90
28863;DHT22;15994;51.796;13.006;2023-06-24T12:14:07;22.50;99.90
28863;DHT22;15994;51.796;13.006;2023-06-24T12:16:34;22.40;99.90
28863;DHT22;15994;51.796;13.006;2023-06-24T12:19:00;22.50;99.90
28863;DHT22;15994;51.796;13.006;2023-06-24T12:21:27;22.70;99.90
28863;DHT22;15994;51.796;13.006;2023-06-24T12:23:53;22.70;99.90
28863;DHT22;15994;51.796;13.006;2023-06-24T12:26:20;22.90;99.90
28863;DHT22;15994;51.796;13.006;2023-06-24T12:28:46;23.00;99.90
28863;DHT22;15994;51.796;13.006;2023-06-24T12:31:13;23.00;99.90
28863;DHT22;15994;51.796;13.006;2023-06-24T12:33:39;23.00;99.90
28863;DHT22;15994;51.796;13.006;2023-06-24T12:36:06;22.90;99.90
28863;DHT22;15994;51.796;13.006;2023-06-24T12:38:32;22.90;99.90
28863;DHT22;15994;51.796;13.006;2023-06-24T12:40:59;23.00;99.90
28863;DHT22;15994;51.796;13.006;2023-06-24T12:43:26;23.10;99.90
28863;DHT22;15994;51.796;13.006;2023-06-24T12:45:52;23.20;99.90
28863;DHT22;15994;51.796;13.006;2023-06-24T12:48:19;23.20;99.90
28863;DHT22;15994;51.796;13.006;2023-06-24T12:50:45;23.20;99.90
28863;DHT22;15994;51.796;13.006;2023-06-24T12:53:12;23.20;99.90
28863;DHT22;15994;51.796;13.006;2023-06-24T12:55:39;23.30;99.90
28863;DHT22;15994;51.796;13.006;2023-06-24T12:58:05;23.30;99.90
28863;DHT22;15994;51.796;13.006;2023-06-24T13:00:32;23.30;99.90
28863;DHT22;15994;51.796;13.006;2023-06-24T13:02:58;23.30;99.90
28863;DHT22;15994;51.796;13.006;2023-06-24T13:05:25;23.30;99.90
28863;DHT22;15994;51.796;13.006;2023-06-24T13:07:51;23.40;99.90
28863;DHT22;15994;51.796;13.006;2023-06-24T13:10:18;23.50;99.90
28863;DHT22;15994;51.796;13.006;2023-06-24T13:12:44;23.50;99.90
28863;DHT22;15994;51.796;13.006;2023-06-24T13:15:11;23.80;99.90
28863;DHT22;15994;51.796;13.006;2023-06-24T13:17:38;23.90;99.90
28863;DHT22;15994;51.796;13.006;2023-06-24T13:20:05;23.90;99.90
28863;DHT22;15994;51.796;13.006;2023-06-24T13:22:32;23.90;99.90
28863;DHT22;15994;51.796;13.006;2023-06-24T13:24:58;23.70;99.90
28863;DHT22;15994;51.796;13.006;2023-06-24T13:27:25;23.60;99.90
28863;DHT22;15994;51.796;13.006;2023-06-24T13:29:51;23.40;99.90
28863;DHT22;15994;51.796;13.006;2023-06-24T13:32:18;23.50;99.90
28863;DHT22;15994;51.796;13.006;2023-06-24T13:34:45;23.70;99.90
28863;DHT22;15994;51.796;13.006;2023-06-24T13:37:11;24.00;99.90
28863;DHT22;15994;51.796;13.006;2023-06-24T13:39:37;24.10;99.90
28863;DHT22;15994;51.796;13.006;2023-06-24T13:42:04;24.10;99.90
28863;DHT22;15994;51.796;13.006;2023-06-24T13:44:31;24.30;99.90
28863;DHT22;15994;51.796;13.006;2023-06-24T13:46:57;24.40;99.90
28863;DHT22;15994;51.796;13.006;2023-06-24T13:49:23;24.40;99.90
28863;DHT22;15994;51.796;13.006;2023-06-24T13:51:51;24.40;99.90
28863;DHT22;15994;51.796;13.006;2023-06-24T13:54:17;24.50;99.90
28863;DHT22;15994;51.796;13.006;2023-06-24T13:56:44;24.60;99.90
28863;DHT22;15994;51.796;13.006;2023-06-24T13:59:10;24.70;99.90
28863;DHT22;15994;51.796;13.006;2023-06-24T14:01:37;24.50;99.90
28863;DHT22;15994;51.796;13.006;2023-06-24T14:04:03;24.60;99.90
28863;DHT22;15994;51.796;13.006;2023-06-24T14:06:30;24.60;99.90
28863;DHT22;15994;51.796;13.006;2023-06-24T14:08:57;24.50;99.90
28863;DHT22;15994;51.796;13.006;2023-06-24T14:11:24;24.40;99.90
28863;DHT22;15994;51.796;13.006;2023-06-24T14:13:50;24.50;99.90
28863;DHT22;15994;51.796;13.006;2023-06-24T14:16:17;24.50;99.90
28863;DHT22;15994;51.796;13.006;2023-06-24T14:18:43;24.60;99.90
28863;DHT22;15994;51.796;13.006;2023-06-24T14:21:10;24.70;99.90
28863;DHT22;15994;51.796;13.006;2023-06-24T14:23:36;24.70;99.90
28863;DHT22;15994;51.796;13.006;2023-06-24T14:26:03;24.60;99.90
28863;DHT22;15994;51.796;13.006;2023-06-24T14:28:29;24.60;99.90
28863;DHT22;15994;51.796;13.006;2023-06-24T14:30:56;24.70;99.90
28863;DHT22;15994;51.796;13.006;2023-06-24T14:33:22;24.60;99.90
28863;DHT22;15994;51.796;13.006;2023-06-24T14:35:49;24.60;99.90
28863;DHT22;15994;51.796;13.006;2023-06-24T14:38:16;24.70;99.90
28863;DHT22;15994;51.796;13.006;2023-06-24T14:40:42;24.90;99.90
28863;DHT22;15994;51.796;13.006;2023-06-24T14:43:09;24.60;99.90
28863;DHT22;15994;51.796;13.006;2023-06-24T14:45:36;24.70;99.90
28863;DHT22;15994;51.796;13.006;2023-06-24T14:48:02;24.70;99.90
28863;DHT22;15994;51.796;13.006;2023-06-24T14:50:30;24.70;99.90
28863;DHT22;15994;51.796;13.006;2023-06-24T14:52:57;24.70;99.90
28863;DHT22;15994;51.796;13.006;2023-06-24T14:55:23;24.70;99.90
28863;DHT22;15994;51.796;13.006;2023-06-24T14:57:50;24.60;99.90
28863;DHT22;15994;51.796;13.006;2023-06-24T15:00:16;24.80;99.90
28863;DHT22;15994;51.796;13.006;2023-06-24T15:02:43;24.60;99.90
28863;DHT22;15994;51.796;13.006;2023-06-24T15:05:10;24.60;99.90
28863;DHT22;15994;51.796;13.006;2023-06-24T15:07:36;24.70;99.90
28863;DHT22;15994;51.796;13.006;2023-06-24T15:10:04;24.70;99.90
28863;DHT22;15994;51.796;13.006;2023-06-24T15:12:30;24.90;99.90
28863;DHT22;15994;51.796;13.006;2023-06-24T15:14:57;25.30;99.90
28863;DHT22;15994;51.796;13.006;2023-06-24T15:17:23;25.70;99.90
28863;DHT22;15994;51.796;13.006;2023-06-24T15:19:50;25.70;99.90
28863;DHT22;15994;51.796;13.006;2023-06-24T15:22:16;25.80;99.90
28863;DHT22;15994;51.796;13.006;2023-06-24T15:24:43;25.80;99.90
28863;DHT22;15994;51.796;13.006;2023-06-24T15:27:10;26.00;99.90
28863;DHT22;15994;51.796;13.006;2023-06-24T15:29:37;26.10;99.90
28863;DHT22;15994;51.796;13.006;2023-06-24T15:32:03;26.50;99.90
28863;DHT22;15994;51.796;13.006;2023-06-24T15:34:30;26.30;99.90
28863;DHT22;15994;51.796;13.006;2023-06-24T15:36:56;26.50;99.90
28863;DHT22;15994;51.796;13.006;2023-06-24T15:39:22;26.60;99.90